createdAt,value
2019-06-15T00:00:25.705Z,99380.00
2019-06-15T00:02:54.859Z,99372.00
2019-06-15T00:05:23.964Z,99356.00
2019-06-15T00:07:53.088Z,99348.00
2019-06-15T00:10:22.166Z,99336.00
2019-06-15T00:12:51.557Z,99334.00
2019-06-15T00:15:20.923Z,99324.00
2019-06-15T00:17:50.012Z,99307.00
2019-06-15T00:20:19.827Z,99306.00
2019-06-15T00:22:48.958Z,99314.00
2019-06-15T00:25:18.132Z,99298.00
2019-06-15T00:27:47.228Z,99278.00
2019-06-15T00:30:17.054Z,99256.00
2019-06-15T00:32:46.132Z,99241.00
2019-06-15T00:35:15.767Z,99216.00
2019-06-15T00:37:44.841Z,99204.00
2019-06-15T00:40:14.297Z,99202.00
2019-06-15T00:42:43.633Z,99217.00
2019-06-15T00:45:12.813Z,99178.00
2019-06-15T00:47:41.922Z,99165.00
2019-06-15T00:50:11.290Z,99147.00
2019-06-15T00:52:40.374Z,99164.00
2019-06-15T00:55:09.601Z,99190.00
2019-06-15T00:57:38.939Z,99197.00
2019-06-15T01:00:08.578Z,99182.00
2019-06-15T01:02:37.691Z,99172.00
2019-06-15T01:05:07.831Z,99159.00
2019-06-15T01:07:37.195Z,99146.00
2019-06-15T01:10:07.649Z,99152.00
2019-06-15T01:12:36.799Z,99156.00
2019-06-15T01:15:08.050Z,99149.00
2019-06-15T01:17:37.529Z,99153.00
2019-06-15T01:20:07.247Z,99148.00
2019-06-15T01:22:36.613Z,99168.00
2019-06-15T01:25:09.249Z,99163.00
2019-06-15T01:27:39.574Z,99143.00
2019-06-15T01:30:11.101Z,99132.00
2019-06-15T01:32:40.462Z,99133.00
2019-06-15T01:35:10.139Z,99118.00
2019-06-15T01:37:39.288Z,99113.00
2019-06-15T01:40:10.174Z,99115.00
2019-06-15T01:42:39.503Z,99112.00
2019-06-15T01:45:09.363Z,99117.00
2019-06-15T01:47:38.725Z,99121.00
2019-06-15T01:50:08.174Z,99129.00
2019-06-15T01:52:37.542Z,99129.00
2019-06-15T01:55:19.982Z,99130.00
2019-06-15T01:57:38.439Z,99134.00
2019-06-15T02:00:10.663Z,99132.00
2019-06-15T02:02:39.785Z,99137.00
2019-06-15T02:05:08.902Z,99125.00
2019-06-15T02:07:38.267Z,99124.00
2019-06-15T02:10:08.899Z,99118.00
2019-06-15T02:12:38.272Z,99125.00
2019-06-15T02:15:07.799Z,99116.00
2019-06-15T02:17:37.132Z,99105.00
2019-06-15T02:20:10.309Z,99118.00
2019-06-15T02:22:39.651Z,99124.00
2019-06-15T02:25:09.156Z,99112.00
2019-06-15T02:27:38.283Z,99127.00
2019-06-15T02:30:09.080Z,99115.00
2019-06-15T02:32:38.418Z,99110.00
2019-06-15T02:35:07.707Z,99108.00
2019-06-15T02:37:36.950Z,99109.00
2019-06-15T02:40:07.550Z,99111.00
2019-06-15T02:42:36.950Z,99109.00
2019-06-15T02:45:08.249Z,99107.00
2019-06-15T02:47:37.595Z,99090.00
2019-06-15T02:50:07.599Z,99086.00
2019-06-15T02:52:37.209Z,99097.00
2019-06-15T02:55:07.889Z,99083.00
2019-06-15T02:57:37.715Z,99079.00
2019-06-15T03:00:14.789Z,99081.00
2019-06-15T03:02:43.874Z,99087.00
2019-06-15T03:05:13.533Z,99091.00
2019-06-15T03:07:43.084Z,99081.00
2019-06-15T03:10:13.058Z,99079.00
2019-06-15T03:12:42.515Z,99083.00
2019-06-15T03:15:11.772Z,99077.00
2019-06-15T03:17:41.145Z,99075.00
2019-06-15T03:20:10.890Z,99070.00
2019-06-15T03:22:39.969Z,99074.00
2019-06-15T03:25:11.738Z,99060.00
2019-06-15T03:27:41.458Z,99067.00
2019-06-15T03:30:12.082Z,99066.00
2019-06-15T03:32:41.159Z,99059.00
2019-06-15T03:35:11.504Z,99069.00
2019-06-15T03:37:40.593Z,99076.00
2019-06-15T03:40:09.881Z,99069.00
2019-06-15T03:42:39.245Z,99092.00
2019-06-15T03:45:10.263Z,99067.00
2019-06-15T03:47:39.384Z,99078.00
2019-06-15T03:50:09.411Z,99069.00
2019-06-15T03:52:38.777Z,99059.00
2019-06-15T03:55:08.802Z,99063.00
2019-06-15T03:57:38.165Z,99069.00
2019-06-15T04:00:26.988Z,99086.00
2019-06-15T04:02:56.313Z,99076.00
2019-06-15T04:05:25.775Z,99050.00
2019-06-15T04:07:54.904Z,99049.00
2019-06-15T04:10:24.310Z,99038.00
2019-06-15T04:12:53.669Z,99051.00
2019-06-15T04:15:23.083Z,99049.00
2019-06-15T04:17:52.458Z,99060.00
2019-06-15T04:20:21.825Z,99056.00
2019-06-15T04:22:51.282Z,99068.00
2019-06-15T04:25:20.701Z,99068.00
2019-06-15T04:27:49.784Z,99083.00
2019-06-15T04:30:19.227Z,99078.00
2019-06-15T04:32:48.313Z,99070.00
2019-06-15T04:35:17.430Z,99066.00
2019-06-15T04:37:46.533Z,99075.00
2019-06-15T04:40:16.291Z,99079.00
2019-06-15T04:42:45.432Z,99063.00
2019-06-15T04:45:14.538Z,99066.00
2019-06-15T04:47:43.913Z,99065.00
2019-06-15T04:50:13.267Z,99069.00
2019-06-15T04:52:42.619Z,99062.00
2019-06-15T04:55:12.695Z,99048.00
2019-06-15T04:57:42.068Z,99029.00
2019-06-15T05:00:11.556Z,99042.00
2019-06-15T05:02:41.065Z,99032.00
2019-06-15T05:05:10.218Z,99039.00
2019-06-15T05:07:39.562Z,99012.00
2019-06-15T05:10:09.269Z,99018.00
2019-06-15T05:12:38.433Z,99023.00
2019-06-15T05:15:08.793Z,99028.00
2019-06-15T05:17:37.885Z,99024.00
2019-06-15T05:20:07.837Z,99023.00
2019-06-15T05:22:36.933Z,99023.00
2019-06-15T05:25:07.489Z,99023.00
2019-06-15T05:27:36.605Z,99023.00
2019-06-15T05:30:08.727Z,99027.00
2019-06-15T05:32:37.816Z,99025.00
2019-06-15T05:35:06.976Z,99027.00
2019-06-15T05:37:36.326Z,99040.00
2019-06-15T05:40:06.511Z,99032.00
2019-06-15T05:42:35.635Z,99035.00
2019-06-15T05:45:09.131Z,99022.00
2019-06-15T05:47:38.502Z,99021.00
2019-06-15T05:50:09.040Z,99026.00
2019-06-15T05:52:38.154Z,99035.00
2019-06-15T05:55:07.608Z,99021.00
2019-06-15T05:57:36.752Z,99028.00
2019-06-15T06:00:08.022Z,99032.00
2019-06-15T06:02:37.370Z,99023.00
2019-06-15T06:05:07.096Z,99027.00
2019-06-15T06:07:36.219Z,99033.00
2019-06-15T06:10:10.960Z,99025.00
2019-06-15T06:12:39.689Z,99018.00
2019-06-15T06:15:09.529Z,99025.00
2019-06-15T06:17:38.903Z,99033.00
2019-06-15T06:20:08.450Z,99032.00
2019-06-15T06:22:37.552Z,99025.00
2019-06-15T06:25:11.743Z,99035.00
2019-06-15T06:27:41.077Z,99040.00
2019-06-15T06:30:11.237Z,99041.00
2019-06-15T06:32:59.731Z,99042.00
2019-06-15T06:35:29.085Z,99058.00
2019-06-15T06:37:58.343Z,99065.00
2019-06-15T06:40:27.746Z,99070.00
2019-06-15T06:42:57.150Z,99085.00
2019-06-15T06:45:26.653Z,99089.00
2019-06-15T06:47:56.061Z,99091.00
2019-06-15T06:50:25.772Z,99099.00
2019-06-15T06:52:55.263Z,99096.00
2019-06-15T06:55:24.780Z,99087.00
2019-06-15T06:57:57.150Z,99086.00
2019-06-15T07:00:25.023Z,99096.00
2019-06-15T07:02:54.522Z,99095.00
2019-06-15T07:05:23.829Z,99098.00
2019-06-15T07:08:09.219Z,99098.00
2019-06-15T07:10:38.817Z,99093.00
2019-06-15T07:13:08.170Z,99106.00
2019-06-15T07:15:37.622Z,99114.00
2019-06-15T07:18:07.131Z,99105.00
2019-06-15T07:20:36.738Z,99101.00
2019-06-15T07:23:06.244Z,99102.00
2019-06-15T07:25:35.750Z,99103.00
2019-06-15T07:28:08.274Z,99110.00
2019-06-15T07:30:36.207Z,99113.00
2019-06-15T07:33:05.504Z,99104.00
2019-06-15T07:35:35.015Z,99110.00
2019-06-15T07:38:04.316Z,99117.00
2019-06-15T07:40:33.965Z,99122.00
2019-06-15T07:43:03.396Z,99131.00
2019-06-15T07:45:32.850Z,99127.00
2019-06-15T07:48:02.335Z,99119.00
2019-06-15T07:50:31.839Z,99122.00
2019-06-15T07:53:01.346Z,99122.00
2019-06-15T07:55:30.850Z,99132.00
2019-06-15T07:58:00.158Z,99143.00
2019-06-15T08:00:29.659Z,99145.00
2019-06-15T08:02:59.161Z,99147.00
2019-06-15T08:05:28.674Z,99145.00
2019-06-15T08:07:58.175Z,99147.00
2019-06-15T08:10:27.679Z,99147.00
2019-06-15T08:12:57.191Z,99138.00
2019-06-15T08:15:27.004Z,99138.00
2019-06-15T08:17:56.511Z,99140.00
2019-06-15T08:20:34.607Z,99144.00
2019-06-15T08:23:04.019Z,99147.00
2019-06-15T08:25:33.522Z,99145.00
2019-06-15T08:28:02.737Z,99142.00
2019-06-15T08:30:43.079Z,99148.00
2019-06-15T08:33:13.317Z,99143.00
2019-06-15T08:35:42.816Z,99146.00
2019-06-15T08:38:12.322Z,99147.00
2019-06-15T08:40:41.992Z,99146.00
2019-06-15T08:43:11.348Z,99148.00
2019-06-15T08:45:40.844Z,99143.00
2019-06-15T08:48:10.360Z,99137.00
2019-06-15T08:50:39.873Z,99151.00
2019-06-15T08:53:09.272Z,99140.00
2019-06-15T08:55:38.812Z,99145.00
2019-06-15T08:58:08.384Z,99150.00
2019-06-15T09:00:37.693Z,99153.00
2019-06-15T09:03:07.078Z,99144.00
2019-06-15T09:05:36.781Z,99139.00
2019-06-15T09:08:07.963Z,99145.00
2019-06-15T09:10:37.746Z,99151.00
2019-06-15T09:13:06.958Z,99149.00
2019-06-15T09:15:53.821Z,99144.00
2019-06-15T09:18:24.085Z,99154.00
2019-06-15T09:20:53.294Z,99143.00
2019-06-15T09:23:22.596Z,99146.00
2019-06-15T09:25:52.300Z,99147.00
2019-06-15T09:28:21.805Z,99157.00
2019-06-15T09:30:51.512Z,99152.00
2019-06-15T09:33:20.828Z,99169.00
2019-06-15T09:35:50.325Z,99160.00
2019-06-15T09:38:19.829Z,99167.00
2019-06-15T09:40:49.244Z,99165.00
2019-06-15T09:43:18.636Z,99159.00
2019-06-15T09:45:48.142Z,99171.00
2019-06-15T09:48:17.657Z,99163.00
2019-06-15T09:50:47.155Z,99172.00
2019-06-15T09:53:16.658Z,99170.00
2019-06-15T09:55:46.167Z,99173.00
2019-06-15T09:58:15.675Z,99173.00
2019-06-15T10:00:45.287Z,99177.00
2019-06-15T10:03:14.791Z,99180.00
2019-06-15T10:05:44.335Z,99180.00
2019-06-15T10:08:13.811Z,99167.00
2019-06-15T10:10:43.308Z,99179.00
2019-06-15T10:13:12.825Z,99187.00
2019-06-15T10:15:42.319Z,99188.00
2019-06-15T10:18:11.837Z,99192.00
2019-06-15T10:20:41.346Z,99185.00
2019-06-15T10:23:10.653Z,99191.00
2019-06-15T10:25:39.950Z,99191.00
2019-06-15T10:28:09.463Z,99199.00
2019-06-15T10:30:38.974Z,99209.00
2019-06-15T10:33:08.462Z,99206.00
2019-06-15T10:35:38.368Z,99204.00
2019-06-15T10:38:07.886Z,99212.00
2019-06-15T10:40:37.593Z,99214.00
2019-06-15T10:43:07.202Z,99224.00
2019-06-15T10:45:36.711Z,99226.00
2019-06-15T10:48:06.323Z,99227.00
2019-06-15T10:50:35.820Z,99229.00
2019-06-15T10:53:05.339Z,99237.00
2019-06-15T10:55:34.844Z,99258.00
2019-06-15T10:58:04.337Z,99236.00
2019-06-15T11:00:33.657Z,99245.00
2019-06-15T11:03:02.851Z,99254.00
2019-06-15T11:05:32.374Z,99253.00
2019-06-15T11:08:01.969Z,99248.00
2019-06-15T11:10:42.232Z,99256.00
2019-06-15T11:13:11.723Z,99260.00
2019-06-15T11:15:42.728Z,99267.00
2019-06-15T11:18:12.179Z,99276.00
2019-06-15T11:20:41.481Z,99283.00
2019-06-15T11:23:10.685Z,99286.00
2019-06-15T11:25:39.982Z,99286.00
2019-06-15T11:28:09.286Z,99287.00
2019-06-15T11:30:38.893Z,99287.00
2019-06-15T11:33:08.625Z,99291.00
2019-06-15T11:35:37.883Z,99281.00
2019-06-15T11:38:07.208Z,99299.00
2019-06-15T11:40:36.407Z,99316.00
2019-06-15T11:43:05.906Z,99312.00
2019-06-15T11:45:35.408Z,99313.00
2019-06-15T11:48:05.083Z,99318.00
2019-06-15T11:50:34.624Z,99322.00
2019-06-15T11:53:04.032Z,99319.00
2019-06-15T11:55:39.515Z,99317.00
2019-06-15T11:58:04.811Z,99313.00
2019-06-15T12:00:37.271Z,99321.00
2019-06-15T12:03:06.679Z,99329.00
2019-06-15T12:05:36.085Z,99334.00
2019-06-15T12:08:05.711Z,99334.00
2019-06-15T12:10:35.195Z,99332.00
2019-06-15T12:13:04.698Z,99327.00
2019-06-15T12:15:34.360Z,99325.00
2019-06-15T12:18:03.801Z,99355.00
2019-06-15T12:20:33.518Z,99348.00
2019-06-15T12:23:02.833Z,99347.00
2019-06-15T12:25:33.457Z,99350.00
2019-06-15T12:28:03.268Z,99362.00
2019-06-15T12:30:59.410Z,99362.00
2019-06-15T12:33:28.707Z,99360.00
2019-06-15T12:35:58.010Z,99353.00
2019-06-15T12:38:27.230Z,99360.00
2019-06-15T12:41:04.695Z,99363.00
2019-06-15T12:43:34.004Z,99372.00
2019-06-15T12:46:03.521Z,99376.00
2019-06-15T12:48:33.418Z,99368.00
2019-06-15T12:51:02.925Z,99378.00
2019-06-15T12:53:32.429Z,99378.00
2019-06-15T12:56:01.934Z,99376.00
2019-06-15T12:58:31.450Z,99387.00
2019-06-15T13:01:03.398Z,99386.00
2019-06-15T13:03:31.899Z,99382.00
2019-06-15T13:06:01.288Z,99395.00
2019-06-15T13:08:30.796Z,99393.00
2019-06-15T13:11:00.302Z,99391.00
2019-06-15T13:13:29.835Z,99405.00
2019-06-15T13:15:59.321Z,99391.00
2019-06-15T13:18:28.745Z,99416.00
2019-06-15T13:20:57.931Z,99398.00
2019-06-15T13:23:27.327Z,99394.00
2019-06-15T13:25:56.638Z,99397.00
2019-06-15T13:28:26.141Z,99409.00
2019-06-15T13:30:55.640Z,99410.00
2019-06-15T13:33:25.153Z,99412.00
2019-06-15T13:35:54.458Z,99409.00
2019-06-15T13:38:23.950Z,99413.00
2019-06-15T13:40:53.164Z,99413.00
2019-06-15T13:43:22.661Z,99414.00
2019-06-15T13:45:52.173Z,99416.00
2019-06-15T13:48:21.782Z,99420.00
2019-06-15T13:50:51.286Z,99419.00
2019-06-15T13:53:20.806Z,99423.00
2019-06-15T13:55:50.301Z,99419.00
2019-06-15T13:58:19.804Z,99412.00
2019-06-15T14:00:49.114Z,99427.00
2019-06-15T14:03:18.311Z,99429.00
2019-06-15T14:06:06.787Z,99429.00
2019-06-15T14:08:36.255Z,99433.00
2019-06-15T14:11:05.770Z,99421.00
2019-06-15T14:13:34.974Z,99431.00
2019-06-15T14:16:04.276Z,99418.00
2019-06-15T14:18:33.665Z,99424.00
2019-06-15T14:21:03.204Z,99435.00
2019-06-15T14:23:32.687Z,99429.00
2019-06-15T14:26:02.195Z,99440.00
2019-06-15T14:28:31.693Z,99443.00
2019-06-15T14:31:01.199Z,99443.00
2019-06-15T14:33:30.514Z,99456.00
2019-06-15T14:36:00.012Z,99460.00
2019-06-15T14:38:29.636Z,99454.00
2019-06-15T14:40:58.931Z,99463.00
2019-06-15T14:43:28.222Z,99460.00
2019-06-15T14:45:59.759Z,99448.00
2019-06-15T14:48:29.086Z,99446.00
2019-06-15T14:50:58.390Z,99452.00
2019-06-15T14:53:27.790Z,99462.00
2019-06-15T14:55:57.291Z,99448.00
2019-06-15T14:58:26.704Z,99451.00
2019-06-15T15:00:57.158Z,99449.00
2019-06-15T15:03:26.855Z,99460.00
2019-06-15T15:05:56.350Z,99446.00
2019-06-15T15:08:26.535Z,99450.00
2019-06-15T15:10:56.407Z,99447.00
2019-06-15T15:13:26.524Z,99445.00
2019-06-15T15:15:56.964Z,99454.00
2019-06-15T15:18:27.175Z,99447.00
2019-06-15T15:20:56.661Z,99444.00
2019-06-15T15:23:26.176Z,99450.00
2019-06-15T15:25:57.606Z,99449.00
2019-06-15T15:28:26.930Z,99442.00
2019-06-15T15:30:56.338Z,99446.00
2019-06-15T15:33:25.638Z,99444.00
2019-06-15T15:35:54.835Z,99441.00
2019-06-15T15:38:24.035Z,99442.00
2019-06-15T15:40:55.989Z,99447.00
2019-06-15T15:43:26.417Z,99438.00
2019-06-15T15:45:56.416Z,99437.00
2019-06-15T15:48:26.152Z,99442.00
2019-06-15T15:50:57.374Z,99432.00
2019-06-15T15:53:27.008Z,99431.00
2019-06-15T15:56:00.083Z,99432.00
2019-06-15T15:58:27.763Z,99430.00
2019-06-15T16:00:57.308Z,99427.00
2019-06-15T16:03:26.593Z,99436.00
2019-06-15T16:05:56.231Z,99419.00
2019-06-15T16:08:28.226Z,99431.00
2019-06-15T16:10:56.660Z,99420.00
2019-06-15T16:13:26.847Z,99417.00
2019-06-15T16:15:56.252Z,99419.00
2019-06-15T16:18:25.469Z,99428.00
2019-06-15T16:20:54.952Z,99429.00
2019-06-15T16:23:24.463Z,99427.00
2019-06-15T16:25:53.964Z,99428.00
2019-06-15T16:28:23.367Z,99432.00
2019-06-15T16:31:13.307Z,99431.00
2019-06-15T16:33:26.373Z,99434.00
2019-06-15T16:35:56.905Z,99438.00
2019-06-15T16:38:27.657Z,99433.00
2019-06-15T16:40:56.949Z,99430.00
2019-06-15T16:43:28.807Z,99430.00
2019-06-15T16:45:57.617Z,99436.00
2019-06-15T16:48:27.201Z,99436.00
2019-06-15T16:50:57.777Z,99443.00
2019-06-15T16:53:27.251Z,99443.00
2019-06-15T16:55:56.680Z,99438.00
2019-06-15T16:58:26.547Z,99448.00
2019-06-15T17:00:57.105Z,99443.00
2019-06-15T17:03:29.255Z,99450.00
2019-06-15T17:05:57.520Z,99449.00
2019-06-15T17:08:27.142Z,99449.00
2019-06-15T17:10:56.650Z,99451.00
2019-06-15T17:13:26.164Z,99451.00
2019-06-15T17:15:57.213Z,99455.00
2019-06-15T17:18:26.709Z,99461.00
2019-06-15T17:20:56.617Z,99477.00
2019-06-15T17:23:27.669Z,99476.00
2019-06-15T17:25:57.377Z,99480.00
2019-06-15T17:28:26.873Z,99478.00
2019-06-15T17:30:56.680Z,99480.00
2019-06-15T17:33:37.012Z,99488.00
2019-06-15T17:36:02.796Z,99496.00
2019-06-15T17:38:28.175Z,99497.00
2019-06-15T17:40:57.689Z,99495.00
2019-06-15T17:43:27.062Z,99491.00
2019-06-15T17:45:56.753Z,99491.00
2019-06-15T17:48:26.203Z,99491.00
2019-06-15T17:50:57.251Z,99490.00
2019-06-15T17:53:26.862Z,99489.00
2019-06-15T17:55:56.243Z,99500.00
2019-06-15T17:58:26.480Z,99504.00
2019-06-15T18:00:57.530Z,99502.00
2019-06-15T18:03:26.841Z,99503.00
2019-06-15T18:05:58.295Z,99489.00
2019-06-15T18:08:27.756Z,99499.00
2019-06-15T18:10:57.706Z,99504.00
2019-06-15T18:13:27.223Z,99507.00
2019-06-15T18:15:56.792Z,99507.00
2019-06-15T18:18:27.786Z,99508.00
2019-06-15T18:20:57.482Z,99503.00
2019-06-15T18:23:26.877Z,99496.00
2019-06-15T18:25:56.206Z,99501.00
2019-06-15T18:28:26.445Z,99499.00
2019-06-15T18:30:55.943Z,99508.00
2019-06-15T18:33:27.312Z,99508.00
2019-06-15T18:35:56.293Z,99515.00
2019-06-15T18:38:26.049Z,99520.00
2019-06-15T18:40:56.249Z,99522.00
2019-06-15T18:43:26.302Z,99532.00
2019-06-15T18:45:56.768Z,99535.00
2019-06-15T18:48:26.539Z,99535.00
2019-06-15T18:50:56.270Z,99541.00
2019-06-15T18:53:26.861Z,99549.00
2019-06-15T18:55:56.916Z,99555.00
2019-06-15T18:58:26.243Z,99562.00
2019-06-15T19:00:55.746Z,99573.00
2019-06-15T19:03:26.350Z,99588.00
2019-06-15T19:05:56.944Z,99596.00
2019-06-15T19:08:26.610Z,99597.00
2019-06-15T19:10:56.811Z,99602.00
2019-06-15T19:13:26.848Z,99605.00
2019-06-15T19:15:57.213Z,99604.00
2019-06-15T19:18:27.176Z,99611.00
2019-06-15T19:20:56.679Z,99617.00
2019-06-15T19:23:26.682Z,99620.00
2019-06-15T19:25:57.309Z,99631.00
2019-06-15T19:28:27.254Z,99630.00
2019-06-15T19:30:56.885Z,99634.00
2019-06-15T19:33:26.867Z,99638.00
2019-06-15T19:35:57.834Z,99648.00
2019-06-15T19:38:27.411Z,99636.00
2019-06-15T19:40:56.780Z,99631.00
2019-06-15T19:43:26.231Z,99637.00
2019-06-15T19:45:56.564Z,99635.00
2019-06-15T19:48:26.904Z,99633.00
2019-06-15T19:50:56.872Z,99643.00
2019-06-15T19:53:27.290Z,99653.00
2019-06-15T19:55:57.637Z,99651.00
2019-06-15T19:58:27.796Z,99659.00
2019-06-15T20:00:57.285Z,99654.00
2019-06-15T20:03:27.709Z,99657.00
2019-06-15T20:05:57.085Z,99661.00
2019-06-15T20:08:26.719Z,99664.00
2019-06-15T20:10:56.685Z,99660.00
2019-06-15T20:13:26.260Z,99660.00
2019-06-15T20:15:57.172Z,99668.00
2019-06-15T20:18:30.095Z,99665.00
2019-06-15T20:20:58.368Z,99670.00
2019-06-15T20:23:28.901Z,99672.00
2019-06-15T20:25:58.401Z,99682.00
2019-06-15T20:28:27.899Z,99681.00
2019-06-15T20:30:57.312Z,99697.00
2019-06-15T20:33:26.511Z,99707.00
2019-06-15T20:35:57.497Z,99707.00
2019-06-15T20:38:27.120Z,99721.00
2019-06-15T20:40:56.764Z,99717.00
2019-06-15T20:43:27.437Z,99722.00
2019-06-15T20:45:56.911Z,99719.00
2019-06-15T20:48:26.978Z,99724.00
2019-06-15T20:50:56.859Z,99729.00
2019-06-15T20:53:26.560Z,99720.00
2019-06-15T20:55:57.032Z,99724.00
2019-06-15T20:58:26.598Z,99721.00
2019-06-15T21:00:56.409Z,99724.00
2019-06-15T21:03:26.827Z,99729.00
2019-06-15T21:05:57.448Z,99722.00
2019-06-15T21:08:27.068Z,99723.00
2019-06-15T21:10:56.576Z,99725.00
2019-06-15T21:13:26.536Z,99722.00
2019-06-15T21:15:56.843Z,99738.00
2019-06-15T21:18:26.849Z,99739.00
2019-06-15T21:20:56.419Z,99733.00
2019-06-15T21:23:26.787Z,99745.00
2019-06-15T21:25:57.294Z,99750.00
2019-06-15T21:28:27.416Z,99754.00
2019-06-15T21:30:57.054Z,99761.00
2019-06-15T21:33:26.601Z,99765.00
2019-06-15T21:35:56.714Z,99770.00
2019-06-15T21:38:26.477Z,99770.00
2019-06-15T21:40:57.101Z,99771.00
2019-06-15T21:43:26.764Z,99778.00
2019-06-15T21:45:57.008Z,99772.00
2019-06-15T21:48:26.955Z,99787.00
2019-06-15T21:50:59.212Z,99776.00
2019-06-15T21:53:27.606Z,99776.00
2019-06-15T21:55:56.920Z,99771.00
2019-06-15T21:58:27.201Z,99780.00
2019-06-15T22:00:59.819Z,99783.00
2019-06-15T22:03:29.120Z,99787.00
2019-06-15T22:06:03.142Z,99792.00
2019-06-15T22:08:29.567Z,99794.00
2019-06-15T22:10:59.067Z,99804.00
2019-06-15T22:13:28.567Z,99805.00
2019-06-15T22:15:58.092Z,99803.00
2019-06-15T22:18:27.586Z,99805.00
2019-06-15T22:20:57.543Z,99805.00
2019-06-15T22:23:27.044Z,99812.00
2019-06-15T22:25:57.107Z,99813.00
2019-06-15T22:28:27.139Z,99806.00
2019-06-15T22:30:57.254Z,99810.00
2019-06-15T22:33:26.990Z,99813.00
2019-06-15T22:35:56.611Z,99813.00
2019-06-15T22:38:26.194Z,99810.00
2019-06-15T22:40:56.445Z,99810.00
2019-06-15T22:43:27.332Z,99805.00
2019-06-15T22:45:56.970Z,99808.00
2019-06-15T22:48:27.216Z,99811.00
2019-06-15T22:50:56.603Z,99817.00
2019-06-15T22:53:27.164Z,99820.00
2019-06-15T22:55:57.096Z,99825.00
2019-06-15T22:58:27.112Z,99826.00
2019-06-15T23:00:56.893Z,99813.00
2019-06-15T23:03:26.312Z,99829.00
2019-06-15T23:05:57.104Z,99831.00
2019-06-15T23:08:26.944Z,99827.00
2019-06-15T23:10:57.160Z,99837.00
2019-06-15T23:13:26.667Z,99847.00
2019-06-15T23:15:56.510Z,99860.00
2019-06-15T23:18:25.889Z,99858.00
2019-06-15T23:20:56.937Z,99864.00
2019-06-15T23:23:25.928Z,99859.00
2019-06-15T23:25:56.594Z,99861.00
2019-06-15T23:28:27.088Z,99864.00
2019-06-15T23:30:56.594Z,99878.00
2019-06-15T23:33:26.592Z,99884.00
2019-06-15T23:36:09.740Z,99889.00
2019-06-15T23:38:38.949Z,99888.00
2019-06-15T23:41:08.329Z,99892.00
2019-06-15T23:43:37.743Z,99881.00
2019-06-15T23:46:07.243Z,99878.00
2019-06-15T23:48:36.745Z,99873.00
2019-06-15T23:51:06.562Z,99874.00
2019-06-15T23:53:36.704Z,99872.00
2019-06-15T23:56:07.180Z,99874.00
2019-06-15T23:58:37.126Z,99879.00
